createdAt,value
2023-04-08T00:00:13.241Z,6.43
2023-04-08T00:02:41.389Z,6.43
2023-04-08T00:05:09.636Z,6.46
2023-04-08T00:07:37.510Z,6.46
2023-04-08T00:10:05.113Z,6.46
2023-04-08T00:12:32.828Z,6.46
2023-04-08T00:15:00.801Z,6.46
2023-04-08T00:17:28.767Z,6.48
2023-04-08T00:19:56.872Z,6.51
2023-04-08T00:22:24.775Z,6.52
2023-04-08T00:24:52.390Z,6.54
2023-04-08T00:27:20.790Z,6.54
2023-04-08T00:29:48.418Z,6.55
2023-04-08T00:32:16.225Z,6.57
2023-04-08T00:34:43.863Z,6.59
2023-04-08T00:37:11.529Z,6.62
2023-04-08T00:39:39.501Z,6.66
2023-04-08T00:42:07.109Z,6.68
2023-04-08T00:44:34.734Z,6.69
2023-04-08T00:47:02.532Z,6.71
2023-04-08T00:49:30.675Z,6.74
2023-04-08T00:51:58.698Z,6.77
2023-04-08T00:54:26.637Z,6.80
2023-04-08T00:56:54.246Z,6.85
2023-04-08T00:59:21.967Z,6.91
2023-04-08T01:01:49.622Z,6.95
2023-04-08T01:04:17.775Z,6.99
2023-04-08T01:06:47.099Z,7.02
2023-04-08T01:09:14.709Z,7.05
2023-04-08T01:11:43.734Z,7.07
2023-04-08T01:14:11.326Z,7.09
2023-04-08T01:16:38.904Z,7.12
2023-04-08T01:19:06.504Z,7.15
2023-04-08T01:21:34.096Z,7.15
2023-04-08T01:24:02.278Z,7.17
2023-04-08T01:26:29.951Z,7.19
2023-04-08T01:28:57.878Z,7.20
2023-04-08T01:31:25.469Z,7.22
2023-04-08T01:33:53.144Z,7.23
2023-04-08T01:36:20.928Z,7.24
2023-04-08T01:38:48.778Z,7.22
2023-04-08T01:41:16.950Z,7.22
2023-04-08T01:43:44.568Z,7.22
2023-04-08T01:46:12.191Z,7.22
2023-04-08T01:48:39.977Z,7.25
2023-04-08T01:51:07.542Z,7.24
2023-04-08T01:53:35.523Z,7.24
2023-04-08T01:56:03.652Z,7.22
2023-04-08T01:58:31.234Z,7.22
2023-04-08T02:00:58.829Z,7.24
2023-04-08T02:03:27.009Z,7.24
2023-04-08T02:05:54.937Z,7.25
2023-04-08T02:08:22.532Z,7.26
2023-04-08T02:10:50.139Z,7.27
2023-04-08T02:13:17.788Z,7.30
2023-04-08T02:15:45.576Z,7.31
2023-04-08T02:18:13.918Z,7.31
2023-04-08T02:20:41.546Z,7.31
2023-04-08T02:23:09.314Z,7.28
2023-04-08T02:25:37.234Z,7.28
2023-04-08T02:28:04.842Z,7.27
2023-04-08T02:30:32.833Z,7.27
2023-04-08T02:33:00.550Z,7.25
2023-04-08T02:35:28.204Z,7.24
2023-04-08T02:37:55.817Z,7.21
2023-04-08T02:40:23.951Z,7.14
2023-04-08T02:42:51.957Z,7.08
2023-04-08T02:45:19.578Z,7.00
2023-04-08T02:47:47.353Z,6.93
2023-04-08T02:50:14.997Z,6.84
2023-04-08T02:52:43.942Z,6.75
2023-04-08T02:55:12.187Z,6.70
2023-04-08T02:57:39.727Z,6.69
2023-04-08T03:00:07.396Z,6.71
2023-04-08T03:02:35.197Z,6.69
2023-04-08T03:05:03.139Z,6.68
2023-04-08T03:07:30.792Z,6.66
2023-04-08T03:09:58.703Z,6.63
2023-04-08T03:12:27.578Z,6.62
2023-04-08T03:14:55.174Z,6.61
2023-04-08T03:17:22.841Z,6.60
2023-04-08T03:19:50.856Z,6.61
2023-04-08T03:22:18.455Z,6.61
2023-04-08T03:24:46.589Z,6.60
2023-04-08T03:27:14.498Z,6.60
2023-04-08T03:29:42.077Z,6.61
2023-04-08T03:32:10.150Z,6.62
2023-04-08T03:34:37.814Z,6.63
2023-04-08T03:37:05.450Z,6.68
2023-04-08T03:39:33.121Z,6.70
2023-04-08T03:42:01.173Z,6.70
2023-04-08T03:44:28.754Z,6.69
2023-04-08T03:46:56.740Z,6.66
2023-04-08T03:49:24.325Z,6.66
2023-04-08T03:51:51.891Z,6.66
2023-04-08T03:54:19.482Z,6.65
2023-04-08T03:56:47.250Z,6.68
2023-04-08T03:59:14.823Z,6.68
2023-04-08T04:01:42.475Z,6.67
2023-04-08T04:04:10.385Z,6.67
2023-04-08T04:06:38.088Z,6.68
2023-04-08T04:09:06.525Z,6.66
2023-04-08T04:11:34.092Z,6.63
2023-04-08T04:14:01.700Z,6.61
2023-04-08T04:16:31.501Z,6.59
2023-04-08T04:19:00.450Z,6.54
2023-04-08T04:21:28.395Z,6.49
2023-04-08T04:23:56.390Z,6.44
2023-04-08T04:26:23.976Z,6.40
2023-04-08T04:28:51.997Z,6.38
2023-04-08T04:31:19.887Z,6.37
2023-04-08T04:33:47.983Z,6.34
2023-04-08T04:36:15.578Z,6.33
2023-04-08T04:38:44.117Z,6.30
2023-04-08T04:41:11.763Z,6.29
2023-04-08T04:43:39.375Z,6.28
2023-04-08T04:46:09.457Z,6.27
2023-04-08T04:48:37.054Z,6.26
2023-04-08T04:51:05.064Z,6.28
2023-04-08T04:53:32.706Z,6.27
2023-04-08T04:56:01.951Z,6.27
2023-04-08T04:58:30.109Z,6.25
2023-04-08T05:00:57.683Z,6.23
2023-04-08T05:03:25.338Z,6.22
2023-04-08T05:05:53.617Z,6.19
2023-04-08T05:08:21.328Z,6.18
2023-04-08T05:10:50.611Z,6.17
2023-04-08T05:13:18.721Z,6.16
2023-04-08T05:15:46.858Z,6.15
2023-04-08T05:18:14.511Z,6.18
2023-04-08T05:20:42.153Z,6.22
2023-04-08T05:23:10.154Z,6.24
2023-04-08T05:25:37.745Z,6.26
2023-04-08T05:28:05.512Z,6.27
2023-04-08T05:30:33.157Z,6.28
2023-04-08T05:33:00.988Z,6.29
2023-04-08T05:35:29.531Z,6.31
2023-04-08T05:37:57.162Z,6.32
2023-04-08T05:40:24.836Z,6.36
2023-04-08T05:42:52.853Z,6.38
2023-04-08T05:45:20.772Z,6.40
2023-04-08T05:47:48.848Z,6.39
2023-04-08T05:50:16.729Z,6.40
2023-04-08T05:52:45.019Z,6.41
2023-04-08T05:55:12.666Z,6.45
2023-04-08T05:57:40.623Z,6.49
2023-04-08T06:00:09.444Z,6.54
2023-04-08T06:02:37.334Z,6.56
2023-04-08T06:05:05.138Z,6.58
2023-04-08T06:07:32.886Z,6.60
2023-04-08T06:10:00.593Z,6.62
2023-04-08T06:12:28.208Z,6.64
2023-04-08T06:14:56.256Z,6.64
2023-04-08T06:17:23.947Z,6.64
2023-04-08T06:19:53.064Z,6.67
2023-04-08T06:22:20.717Z,6.71
2023-04-08T06:24:48.702Z,6.79
2023-04-08T06:27:16.576Z,6.87
2023-04-08T06:29:44.296Z,6.92
2023-04-08T06:32:12.112Z,6.97
2023-04-08T06:34:40.004Z,7.02
2023-04-08T06:37:08.050Z,7.05
2023-04-08T06:39:35.644Z,7.08
2023-04-08T06:42:03.713Z,7.11
2023-04-08T06:44:31.441Z,7.15
2023-04-08T06:46:59.080Z,7.16
2023-04-08T06:49:27.902Z,7.18
2023-04-08T06:51:55.530Z,7.21
2023-04-08T06:54:24.098Z,7.21
2023-04-08T06:56:52.886Z,7.23
2023-04-08T06:59:20.733Z,7.25
2023-04-08T07:01:49.116Z,7.25
2023-04-08T07:04:18.289Z,7.26
2023-04-08T07:06:46.118Z,7.29
2023-04-08T07:09:13.773Z,7.34
2023-04-08T07:11:41.388Z,7.44
2023-04-08T07:14:09.644Z,7.54
2023-04-08T07:16:37.342Z,7.63
2023-04-08T07:19:04.981Z,7.73
2023-04-08T07:21:32.916Z,7.78
2023-04-08T07:24:00.628Z,7.82
2023-04-08T07:26:29.312Z,7.86
2023-04-08T07:28:56.985Z,7.91
2023-04-08T07:31:24.622Z,7.99
2023-04-08T07:33:52.258Z,8.07
2023-04-08T07:36:19.896Z,8.10
2023-04-08T07:38:47.770Z,8.12
2023-04-08T07:41:15.942Z,8.09
2023-04-08T07:43:43.650Z,8.10
2023-04-08T07:46:11.526Z,8.17
2023-04-08T07:48:39.640Z,8.22
2023-04-08T07:51:10.971Z,8.28
2023-04-08T07:53:39.287Z,8.28
2023-04-08T07:56:07.020Z,8.35
2023-04-08T07:58:34.821Z,8.45
2023-04-08T08:01:02.722Z,8.52
2023-04-08T08:03:33.283Z,8.55
2023-04-08T08:06:02.253Z,8.61
2023-04-08T08:08:29.880Z,8.63
2023-04-08T08:10:59.179Z,8.63
2023-04-08T08:13:26.923Z,8.63
2023-04-08T08:15:55.251Z,8.59
2023-04-08T08:18:23.037Z,8.58
2023-04-08T08:20:50.714Z,8.57
2023-04-08T08:23:18.586Z,8.60
2023-04-08T08:25:46.258Z,8.65
2023-04-08T08:28:14.071Z,8.69
2023-04-08T08:30:41.744Z,8.71
2023-04-08T08:33:09.505Z,8.77
2023-04-08T08:35:37.923Z,8.83
2023-04-08T08:38:05.548Z,8.90
2023-04-08T08:40:33.590Z,8.96
2023-04-08T08:43:01.681Z,8.99
2023-04-08T08:45:29.484Z,8.97
2023-04-08T08:47:57.726Z,8.92
2023-04-08T08:50:25.560Z,8.87
2023-04-08T08:52:53.598Z,8.83
2023-04-08T08:55:39.525Z,8.79
2023-04-08T08:58:10.382Z,8.78
2023-04-08T09:00:38.054Z,8.75
2023-04-08T09:03:06.313Z,8.73
2023-04-08T09:05:34.471Z,8.71
2023-04-08T09:08:02.215Z,8.71
2023-04-08T09:10:30.486Z,8.72
2023-04-08T09:12:58.173Z,8.74
2023-04-08T09:15:26.580Z,8.80
2023-04-08T09:17:54.346Z,8.86
2023-04-08T09:20:22.066Z,8.92
2023-04-08T09:22:49.949Z,9.00
2023-04-08T09:25:17.582Z,9.08
2023-04-08T09:27:45.543Z,9.18
2023-04-08T09:30:13.224Z,9.21
2023-04-08T09:32:41.265Z,9.20
2023-04-08T09:35:08.955Z,9.17
2023-04-08T09:37:37.992Z,9.18
2023-04-08T09:40:06.029Z,9.18
2023-04-08T09:42:33.898Z,9.19
2023-04-08T09:45:01.594Z,9.19
2023-04-08T09:47:29.748Z,9.17
2023-04-08T09:49:57.690Z,9.14
2023-04-08T09:52:25.774Z,9.11
2023-04-08T09:54:53.403Z,9.13
2023-04-08T09:57:21.542Z,9.18
2023-04-08T09:59:49.232Z,9.24
2023-04-08T10:02:17.020Z,9.29
2023-04-08T10:04:45.242Z,9.31
2023-04-08T10:07:13.128Z,9.35
2023-04-08T10:09:43.282Z,9.41
2023-04-08T10:12:11.539Z,9.46
2023-04-08T10:14:39.411Z,9.54
2023-04-08T10:17:07.566Z,9.63
2023-04-08T10:19:35.844Z,9.73
2023-04-08T10:22:03.511Z,9.82
2023-04-08T10:24:31.633Z,9.86
2023-04-08T10:26:59.532Z,9.89
2023-04-08T10:29:27.760Z,9.94
2023-04-08T10:31:55.856Z,9.98
2023-04-08T10:34:25.090Z,9.99
2023-04-08T10:36:53.348Z,10.00
2023-04-08T10:39:21.599Z,10.03
2023-04-08T10:41:50.377Z,10.09
2023-04-08T10:44:18.379Z,10.16
2023-04-08T10:46:46.329Z,10.28
2023-04-08T10:49:14.301Z,10.44
2023-04-08T10:51:42.476Z,10.70
2023-04-08T10:54:10.699Z,10.93
2023-04-08T10:56:38.931Z,11.06
2023-04-08T10:59:07.166Z,11.15
2023-04-08T11:01:35.389Z,11.14
2023-04-08T11:04:03.421Z,11.04
2023-04-08T11:06:33.549Z,10.90
2023-04-08T11:09:01.704Z,10.79
2023-04-08T11:11:30.059Z,10.79
2023-04-08T11:13:58.579Z,10.84
2023-04-08T11:16:26.690Z,10.88
2023-04-08T11:18:55.358Z,10.98
2023-04-08T11:21:23.670Z,11.10
2023-04-08T11:23:52.070Z,11.16
2023-04-08T11:26:22.235Z,11.23
2023-04-08T11:28:52.146Z,11.21
2023-04-08T11:31:23.460Z,11.23
2023-04-08T11:33:52.988Z,11.24
2023-04-08T11:36:21.838Z,11.26
2023-04-08T11:38:49.628Z,11.25
2023-04-08T11:41:17.697Z,11.25
2023-04-08T11:43:45.986Z,11.24
2023-04-08T11:46:13.837Z,11.19
2023-04-08T11:48:41.544Z,11.17
2023-04-08T11:51:10.076Z,11.14
2023-04-08T11:53:38.220Z,11.14
2023-04-08T11:56:06.553Z,11.16
2023-04-08T11:58:34.296Z,11.25
2023-04-08T12:01:02.039Z,11.34
2023-04-08T12:03:29.898Z,11.36
2023-04-08T12:05:57.746Z,11.34
2023-04-08T12:08:26.674Z,11.29
2023-04-08T12:10:54.502Z,11.30
2023-04-08T12:13:22.806Z,11.39
2023-04-08T12:15:50.727Z,11.47
2023-04-08T12:18:18.769Z,11.44
2023-04-08T12:20:46.941Z,11.34
2023-04-08T12:23:14.842Z,11.23
2023-04-08T12:25:43.365Z,11.13
2023-04-08T12:28:11.940Z,11.07
2023-04-08T12:30:39.690Z,11.00
2023-04-08T12:33:07.966Z,10.96
2023-04-08T12:35:35.842Z,11.01
2023-04-08T12:38:03.990Z,11.09
2023-04-08T12:40:31.863Z,11.15
2023-04-08T12:42:59.801Z,11.20
2023-04-08T12:45:28.238Z,11.24
2023-04-08T12:47:56.246Z,11.24
2023-04-08T12:50:26.123Z,11.25
2023-04-08T12:52:54.039Z,11.27
2023-04-08T12:55:25.268Z,11.23
2023-04-08T12:57:53.233Z,11.19
2023-04-08T13:00:20.983Z,11.18
2023-04-08T13:02:49.269Z,11.20
2023-04-08T13:05:19.754Z,11.21
2023-04-08T13:07:51.813Z,11.19
2023-04-08T13:10:19.750Z,11.20
2023-04-08T13:12:47.577Z,11.17
2023-04-08T13:15:16.185Z,11.12
2023-04-08T13:17:44.192Z,11.09
2023-04-08T13:20:12.113Z,11.08
2023-04-08T13:22:42.150Z,11.05
2023-04-08T13:25:09.979Z,11.02
2023-04-08T13:27:37.961Z,11.00
2023-04-08T13:30:05.873Z,10.97
2023-04-08T13:32:33.922Z,10.93
2023-04-08T13:35:01.938Z,10.90
2023-04-08T13:37:30.450Z,10.89
2023-04-08T13:39:58.297Z,10.89
2023-04-08T13:42:26.525Z,10.92
2023-04-08T13:44:54.480Z,10.95
2023-04-08T13:47:22.681Z,11.00
2023-04-08T13:49:50.565Z,11.02
2023-04-08T13:52:18.645Z,11.02
2023-04-08T13:54:47.128Z,11.03
2023-04-08T13:57:15.094Z,11.05
2023-04-08T13:59:44.654Z,11.10
2023-04-08T14:02:13.078Z,11.15
2023-04-08T14:04:41.557Z,11.18
2023-04-08T14:07:09.553Z,11.21
2023-04-08T14:09:37.416Z,11.24
2023-04-08T14:12:05.894Z,11.24
2023-04-08T14:14:34.147Z,11.20
2023-04-08T14:17:02.778Z,11.15
2023-04-08T14:19:30.763Z,11.09
2023-04-08T14:21:58.779Z,11.06
2023-04-08T14:24:27.307Z,11.17
2023-04-08T14:26:55.259Z,11.26
2023-04-08T14:29:24.509Z,11.41
2023-04-08T14:31:53.835Z,11.61
2023-04-08T14:34:21.716Z,11.74
2023-04-08T14:36:50.057Z,11.81
2023-04-08T14:39:18.234Z,11.84
2023-04-08T14:41:47.995Z,11.83
2023-04-08T14:44:16.080Z,11.81
2023-04-08T14:46:44.105Z,11.80
2023-04-08T14:49:12.070Z,11.75
2023-04-08T14:51:39.996Z,11.70
2023-04-08T14:54:08.107Z,11.67
2023-04-08T14:56:36.433Z,11.70
2023-04-08T14:59:04.321Z,11.73
2023-04-08T15:01:34.215Z,11.77
2023-04-08T15:04:02.221Z,11.85
2023-04-08T15:06:31.364Z,11.86
2023-04-08T15:08:59.191Z,11.84
2023-04-08T15:11:27.074Z,11.75
2023-04-08T15:13:55.064Z,11.70
2023-04-08T15:16:22.927Z,11.66
2023-04-08T15:18:51.235Z,11.61
2023-04-08T15:21:19.635Z,11.56
2023-04-08T15:23:47.509Z,11.55
2023-04-08T15:26:15.390Z,11.55
2023-04-08T15:28:43.531Z,11.56
2023-04-08T15:31:11.855Z,11.56
2023-04-08T15:33:41.710Z,11.55
2023-04-08T15:36:09.737Z,11.55
2023-04-08T15:38:38.020Z,11.51
2023-04-08T15:41:05.976Z,11.46
2023-04-08T15:43:35.826Z,11.45
2023-04-08T15:46:03.734Z,11.47
2023-04-08T15:48:32.982Z,11.51
2023-04-08T15:51:01.296Z,11.50
2023-04-08T15:53:29.309Z,11.48
2023-04-08T15:55:57.370Z,11.46
2023-04-08T15:58:25.141Z,11.42
2023-04-08T16:00:55.137Z,11.37
2023-04-08T16:03:23.197Z,11.34
2023-04-08T16:05:52.430Z,11.30
2023-04-08T16:08:20.410Z,11.27
2023-04-08T16:10:48.255Z,11.28
2023-04-08T16:13:16.200Z,11.28
2023-04-08T16:15:44.733Z,11.27
2023-04-08T16:18:13.765Z,11.24
2023-04-08T16:20:42.168Z,11.30
2023-04-08T16:23:09.944Z,11.43
2023-04-08T16:25:37.854Z,11.49
2023-04-08T16:28:07.334Z,11.54
2023-04-08T16:30:37.761Z,11.56
2023-04-08T16:33:06.308Z,11.54
2023-04-08T16:35:34.363Z,11.53
2023-04-08T16:38:02.161Z,11.47
2023-04-08T16:40:33.950Z,11.39
2023-04-08T16:43:02.154Z,11.29
2023-04-08T16:45:30.363Z,11.20
2023-04-08T16:47:58.453Z,11.11
2023-04-08T16:50:26.528Z,11.05
2023-04-08T16:52:55.128Z,11.01
2023-04-08T16:55:22.992Z,10.98
2023-04-08T16:57:51.481Z,10.94
2023-04-08T17:00:21.134Z,10.88
2023-04-08T17:02:49.523Z,10.84
2023-04-08T17:05:18.126Z,10.80
2023-04-08T17:07:46.136Z,10.77
2023-04-08T17:10:15.671Z,10.74
2023-04-08T17:12:43.551Z,10.73
2023-04-08T17:15:11.741Z,10.70
2023-04-08T17:17:40.043Z,10.67
2023-04-08T17:20:07.998Z,10.65
2023-04-08T17:22:36.721Z,10.64
2023-04-08T17:25:04.557Z,10.63
2023-04-08T17:27:32.423Z,10.62
2023-04-08T17:30:00.675Z,10.61
2023-04-08T17:32:28.563Z,10.58
2023-04-08T17:34:56.731Z,10.55
2023-04-08T17:37:24.631Z,10.50
2023-04-08T17:39:52.431Z,10.48
2023-04-08T17:42:23.171Z,10.44
2023-04-08T17:44:50.941Z,10.42
2023-04-08T17:47:18.877Z,10.39
2023-04-08T17:49:46.702Z,10.38
2023-04-08T17:52:14.802Z,10.33
2023-04-08T17:54:43.639Z,10.31
2023-04-08T17:57:11.445Z,10.28
2023-04-08T17:59:39.548Z,10.27
2023-04-08T18:02:07.407Z,10.24
2023-04-08T18:04:35.507Z,10.22
2023-04-08T18:07:05.092Z,10.22
2023-04-08T18:09:32.958Z,10.20
2023-04-08T18:12:01.022Z,10.19
2023-04-08T18:14:28.834Z,10.18
2023-04-08T18:16:57.033Z,10.18
2023-04-08T18:19:27.425Z,10.16
2023-04-08T18:21:55.506Z,10.15
2023-04-08T18:24:23.301Z,10.14
2023-04-08T18:27:01.417Z,10.12
2023-04-08T18:29:32.083Z,10.10
2023-04-08T18:32:00.064Z,10.09
2023-04-08T18:34:27.979Z,10.08
2023-04-08T18:36:56.048Z,10.05
2023-04-08T18:39:24.510Z,10.04
2023-04-08T18:41:52.749Z,10.04
2023-04-08T18:44:20.641Z,10.02
2023-04-08T18:46:48.610Z,10.01
2023-04-08T18:49:16.678Z,10.01
2023-04-08T18:51:59.039Z,10.00
2023-04-08T18:54:30.282Z,10.00
2023-04-08T18:56:59.904Z,9.99
2023-04-08T18:59:29.357Z,9.98
2023-04-08T19:01:57.465Z,9.98
2023-04-08T19:04:25.515Z,9.96
2023-04-08T19:06:53.569Z,9.94
2023-04-08T19:09:21.842Z,9.91
2023-04-08T19:11:49.795Z,9.89
2023-04-08T19:14:18.047Z,9.87
2023-04-08T19:16:46.284Z,9.83
2023-04-08T19:19:15.241Z,9.80
2023-04-08T19:21:43.765Z,9.75
2023-04-08T19:24:11.665Z,9.70
2023-04-08T19:26:39.597Z,9.67
2023-04-08T19:29:07.474Z,9.63
2023-04-08T19:31:35.676Z,9.58
2023-04-08T19:34:04.269Z,9.52
2023-04-08T19:36:32.241Z,9.46
2023-04-08T19:39:01.917Z,9.35
2023-04-08T19:41:30.185Z,9.23
2023-04-08T19:43:58.047Z,9.12
2023-04-08T19:46:26.189Z,9.02
2023-04-08T19:48:56.392Z,8.92
2023-04-08T19:51:24.621Z,8.82
2023-04-08T19:53:54.323Z,8.72
2023-04-08T19:56:22.792Z,8.63
2023-04-08T19:58:51.148Z,8.53
2023-04-08T20:01:19.322Z,8.40
2023-04-08T20:03:50.608Z,8.30
2023-04-08T20:06:18.679Z,8.18
2023-04-08T20:08:47.094Z,8.08
2023-04-08T20:11:15.081Z,8.01
2023-04-08T20:13:43.336Z,7.92
2023-04-08T20:16:11.449Z,7.84
2023-04-08T20:18:39.304Z,7.77
2023-04-08T20:21:08.836Z,7.72
2023-04-08T20:23:39.729Z,7.68
2023-04-08T20:26:07.694Z,7.65
2023-04-08T20:28:35.623Z,7.61
2023-04-08T20:31:03.613Z,7.60
2023-04-08T20:33:32.266Z,7.62
2023-04-08T20:36:00.648Z,7.67
2023-04-08T20:38:28.589Z,7.70
2023-04-08T20:40:56.453Z,7.73
2023-04-08T20:43:24.289Z,7.75
2023-04-08T20:45:52.937Z,7.72
2023-04-08T20:48:21.072Z,7.69
2023-04-08T20:50:48.861Z,7.65
2023-04-08T20:53:17.583Z,7.64
2023-04-08T20:55:45.446Z,7.60
2023-04-08T20:58:13.724Z,7.58
2023-04-08T21:00:41.965Z,7.56
2023-04-08T21:03:10.003Z,7.52
2023-04-08T21:05:37.885Z,7.47
2023-04-08T21:08:06.379Z,7.43
2023-04-08T21:10:34.608Z,7.38
2023-04-08T21:13:02.505Z,7.34
2023-04-08T21:15:30.450Z,7.29
2023-04-08T21:17:58.305Z,7.25
2023-04-08T21:20:26.173Z,7.22
2023-04-08T21:22:54.642Z,7.20
2023-04-08T21:25:22.481Z,7.15
2023-04-08T21:27:50.324Z,7.08
2023-04-08T21:30:18.452Z,6.98
2023-04-08T21:32:46.555Z,6.89
2023-04-08T21:35:14.753Z,6.79
2023-04-08T21:37:42.717Z,6.72
2023-04-08T21:40:10.438Z,6.65
2023-04-08T21:42:38.230Z,6.61
2023-04-08T21:45:06.700Z,6.56
2023-04-08T21:47:34.623Z,6.52
2023-04-08T21:50:04.583Z,6.48
2023-04-08T21:52:32.956Z,6.42
2023-04-08T21:55:01.076Z,6.37
2023-04-08T21:57:28.945Z,6.31
2023-04-08T21:59:56.797Z,6.27
2023-04-08T22:02:25.100Z,6.20
2023-04-08T22:04:53.195Z,6.12
2023-04-08T22:07:21.097Z,6.04
2023-04-08T22:09:48.814Z,5.99
2023-04-08T22:12:17.571Z,5.93
2023-04-08T22:14:45.888Z,5.87
2023-04-08T22:17:13.883Z,5.84
2023-04-08T22:19:41.822Z,5.80
2023-04-08T22:22:09.619Z,5.77
2023-04-08T22:24:37.773Z,5.73
2023-04-08T22:27:05.616Z,5.69
2023-04-08T22:29:34.258Z,5.65
2023-04-08T22:32:02.216Z,5.61
2023-04-08T22:34:30.492Z,5.56
2023-04-08T22:36:58.826Z,5.51
2023-04-08T22:39:27.693Z,5.45
2023-04-08T22:41:56.020Z,5.44
2023-04-08T22:44:23.802Z,5.39
2023-04-08T22:46:51.810Z,5.37
2023-04-08T22:49:19.898Z,5.34
2023-04-08T22:51:47.770Z,5.33
2023-04-08T22:54:15.425Z,5.31
2023-04-08T22:56:43.614Z,5.30
2023-04-08T22:59:11.365Z,5.29
2023-04-08T23:01:39.634Z,5.29
2023-04-08T23:04:07.443Z,5.31
2023-04-08T23:06:35.326Z,5.30
2023-04-08T23:09:03.141Z,5.29
2023-04-08T23:11:31.109Z,5.25
2023-04-08T23:13:59.507Z,5.18
2023-04-08T23:16:27.463Z,5.13
2023-04-08T23:18:55.717Z,5.07
2023-04-08T23:21:23.687Z,5.05
2023-04-08T23:23:51.328Z,5.05
2023-04-08T23:26:19.097Z,5.03
2023-04-08T23:28:47.183Z,5.00
2023-04-08T23:31:14.870Z,5.01
2023-04-08T23:33:42.594Z,4.99
2023-04-08T23:36:10.439Z,4.97
2023-04-08T23:38:38.666Z,4.95
2023-04-08T23:41:08.122Z,4.90
2023-04-08T23:43:35.905Z,4.85
2023-04-08T23:46:03.737Z,4.80
2023-04-08T23:48:31.394Z,4.75
2023-04-08T23:50:59.606Z,4.71
2023-04-08T23:53:27.309Z,4.67
2023-04-08T23:55:55.140Z,4.65
2023-04-08T23:58:22.858Z,4.62
